Time;durP1;ratioP1;P1;durP2;ratioP2;P2;SDS_P1;SDS_P2;PMS_P1;PMS_P2;Temp;Humidity;BMP_temperature;BMP_pressure;BME280_temperature;BME280_humidity;BME280_pressure;Samples;Min_cycle;Max_cycle;Signal;HPM_P1;HPM_P2
2021/12/14 00:00:50;;;;;;;46.90;19.67;;;8.80;99.90;;;;;;5023951;28;20173;-68
2021/12/14 00:03:17;;;;;;;41.10;20.00;;;8.80;99.90;;;;;;5026769;28;20061;-69
2021/12/14 00:05:43;;;;;;;37.13;19.48;;;8.80;99.90;;;;;;5028597;28;20087;-67
2021/12/14 00:08:12;;;;;;;43.30;19.40;;;8.70;99.90;;;;;;5024864;28;20028;-67
2021/12/14 00:13:24;;;;;;;41.17;20.02;;;8.70;99.90;;;;;;5017458;28;20038;-68
2021/12/14 00:15:52;;;;;;;40.17;19.20;;;8.70;99.90;;;;;;5023724;28;20029;-69
2021/12/14 00:18:18;;;;;;;39.28;19.02;;;8.70;99.90;;;;;;5012620;28;20057;-67
2021/12/14 00:20:51;;;;;;;38.10;19.33;;;8.70;99.90;;;;;;5021486;28;20037;-70
2021/12/14 00:25:53;;;;;;;36.72;19.75;;;8.70;99.90;;;;;;5020062;28;20529;-71
2021/12/14 00:28:25;;;;;;;38.97;19.33;;;8.60;99.90;;;;;;5029759;28;20025;-68
2021/12/14 00:30:53;;;;;;;32.42;18.35;;;8.70;99.90;;;;;;5028195;28;20183;-68
2021/12/14 00:33:22;;;;;;;43.40;19.67;;;8.70;99.90;;;;;;5016986;28;20068;-68
2021/12/14 00:35:49;;;;;;;31.33;19.00;;;8.70;99.90;;;;;;5008990;28;20030;-67
2021/12/14 00:38:18;;;;;;;39.35;20.52;;;8.60;99.90;;;;;;5023976;28;20056;-68
2021/12/14 00:40:50;;;;;;;39.85;19.45;;;8.60;99.90;;;;;;5027209;28;20108;-70
2021/12/14 00:43:15;;;;;;;46.38;20.48;;;8.60;99.90;;;;;;5028615;28;20018;-69
2021/12/14 00:45:44;;;;;;;36.08;19.20;;;8.60;99.90;;;;;;5028103;28;20045;-68
2021/12/14 00:48:11;;;;;;;40.28;19.52;;;8.60;99.90;;;;;;5030437;28;20021;-68
2021/12/14 00:50:39;;;;;;;42.30;17.52;;;8.50;99.90;;;;;;4325675;28;10000130;-68
2021/12/14 00:53:05;;;;;;;29.90;18.45;;;8.60;99.90;;;;;;5010885;28;20093;-67
2021/12/14 00:55:39;;;;;;;37.70;20.35;;;8.60;99.90;;;;;;5010549;28;20308;-67
2021/12/14 00:58:05;;;;;;;30.15;18.30;;;8.60;99.90;;;;;;5010899;28;20029;-67
2021/12/14 01:00:39;;;;;;;38.33;20.65;;;8.60;99.90;;;;;;5010414;28;20034;-67
2021/12/14 01:03:06;;;;;;;35.33;19.17;;;8.60;99.90;;;;;;5010302;28;20066;-68
2021/12/14 01:05:36;;;;;;;36.40;18.60;;;8.60;99.90;;;;;;5008737;28;20038;-69
2021/12/14 01:08:05;;;;;;;31.67;18.67;;;8.60;99.90;;;;;;5015686;28;20053;-71
2021/12/14 01:10:42;;;;;;;37.78;19.92;;;8.60;99.90;;;;;;5012824;28;20022;-71
2021/12/14 01:13:09;;;;;;;37.75;19.52;;;8.60;99.90;;;;;;5021139;28;20332;-71
2021/12/14 01:16:01;;;;;;;36.40;18.63;;;8.70;99.90;;;;;;5012937;28;20022;-71
2021/12/14 01:18:47;;;;;;;54.55;19.88;;;8.60;99.90;;;;;;5013694;28;20045;-71
2021/12/14 01:24:08;;;;;;;37.05;19.50;;;8.60;99.90;;;;;;5012393;28;20472;-71
2021/12/14 01:26:36;;;;;;;30.70;17.65;;;8.50;99.90;;;;;;5012589;28;20033;-71
2021/12/14 01:29:07;;;;;;;35.92;18.90;;;8.60;99.90;;;;;;5013195;28;20018;-70
2021/12/14 01:31:38;;;;;;;36.92;17.60;;;8.50;99.90;;;;;;5013070;28;20427;-69
2021/12/14 01:34:13;;;;;;;35.25;17.95;;;8.50;99.90;;;;;;5013171;28;20022;-72
2021/12/14 01:36:44;;;;;;;33.55;18.00;;;8.50;99.90;;;;;;5012882;28;20037;-70
2021/12/14 01:39:33;;;;;;;38.63;18.27;;;8.50;99.90;;;;;;5013166;28;20025;-69
2021/12/14 01:42:06;;;;;;;29.23;18.38;;;8.50;99.90;;;;;;5012704;28;20447;-70
2021/12/14 01:44:36;;;;;;;31.60;17.85;;;8.50;99.90;;;;;;5012748;28;20022;-71
2021/12/14 01:47:08;;;;;;;34.42;18.25;;;8.50;99.90;;;;;;5011284;28;20437;-72
2021/12/14 01:49:34;;;;;;;35.10;18.05;;;8.50;99.90;;;;;;5011569;28;20384;-70
2021/12/14 01:52:06;;;;;;;30.88;18.40;;;8.50;99.90;;;;;;5011449;28;20113;-70
2021/12/14 01:54:37;;;;;;;35.15;19.00;;;8.50;99.90;;;;;;5012702;28;20053;-70
2021/12/14 01:57:07;;;;;;;35.90;17.75;;;8.50;99.90;;;;;;5012113;28;20430;-70
2021/12/14 01:59:38;;;;;;;30.67;17.60;;;8.40;99.90;;;;;;5012668;28;20032;-69
2021/12/14 02:04:44;;;;;;;30.17;17.92;;;8.50;99.90;;;;;;5011413;28;20084;-70
2021/12/14 02:07:12;;;;;;;38.58;18.40;;;8.40;99.90;;;;;;5012560;28;20435;-69
2021/12/14 02:09:39;;;;;;;38.00;18.40;;;8.40;99.90;;;;;;5012500;28;20014;-70
2021/12/14 02:12:12;;;;;;;27.90;17.42;;;8.40;99.90;;;;;;5016008;28;20387;-71
2021/12/14 02:14:38;;;;;;;30.08;16.75;;;8.40;99.90;;;;;;4991596;28;20108;-70
2021/12/14 02:17:06;;;;;;;26.70;15.25;;;8.50;99.90;;;;;;5014906;28;20061;-70
2021/12/14 02:19:33;;;;;;;26.63;16.77;;;8.40;99.90;;;;;;5013026;28;20057;-69
2021/12/14 02:22:00;;;;;;;27.83;16.10;;;8.50;99.90;;;;;;5011786;28;20034;-70
2021/12/14 02:24:28;;;;;;;28.60;16.38;;;8.40;99.90;;;;;;5012199;28;20101;-69
2021/12/14 02:26:56;;;;;;;26.50;15.57;;;8.50;99.90;;;;;;5011820;28;20106;-69
2021/12/14 02:29:51;;;;;;;32.10;15.68;;;8.50;99.90;;;;;;5012200;28;20514;-69
2021/12/14 02:32:25;;;;;;;24.05;15.10;;;8.50;99.90;;;;;;5007163;28;20034;-69
2021/12/14 02:35:00;;;;;;;23.65;14.18;;;8.40;99.90;;;;;;5011987;28;20509;-70
2021/12/14 02:37:40;;;;;;;;;;;8.40;99.90;;;;;;4995833;28;20034;-71
2021/12/14 02:40:20;;;;;;;26.23;13.85;;;8.40;99.90;;;;;;5012366;28;20283;-71
2021/12/14 02:42:50;;;;;;;25.25;14.27;;;8.40;99.90;;;;;;5011737;28;20026;-71
2021/12/14 02:45:20;;;;;;;26.27;14.07;;;8.30;99.90;;;;;;5011863;28;20152;-69
2021/12/14 02:47:46;;;;;;;24.30;15.02;;;8.30;99.90;;;;;;5011762;28;20032;-70
2021/12/14 02:50:15;;;;;;;19.67;14.13;;;8.30;99.90;;;;;;5012033;28;20386;-70
2021/12/14 02:52:40;;;;;;;21.00;14.13;;;8.30;99.90;;;;;;5011547;28;20030;-70
2021/12/14 02:55:18;;;;;;;22.85;14.77;;;8.30;99.90;;;;;;5011479;28;20036;-71
2021/12/14 02:57:48;;;;;;;20.08;13.63;;;8.30;99.90;;;;;;5011225;28;20455;-71
2021/12/14 03:00:27;;;;;;;22.08;13.32;;;8.40;99.90;;;;;;5011733;28;20098;-70
2021/12/14 03:02:53;;;;;;;18.17;13.15;;;8.40;99.90;;;;;;5011566;28;20390;-70
2021/12/14 03:05:23;;;;;;;16.60;12.65;;;8.30;99.90;;;;;;5011630;28;20064;-70
2021/12/14 03:07:55;;;;;;;26.55;14.60;;;8.30;99.90;;;;;;5011475;28;20059;-71
2021/12/14 03:10:39;;;;;;;20.55;14.13;;;8.30;99.90;;;;;;5015033;28;20026;-69
2021/12/14 03:13:09;;;;;;;21.48;14.57;;;8.30;99.90;;;;;;5015654;28;20018;-70
2021/12/14 03:15:47;;;;;;;23.80;14.02;;;8.30;99.90;;;;;;5015717;28;20482;-69
2021/12/14 03:18:17;;;;;;;18.42;13.15;;;8.90;99.90;;;;;;5013937;28;20029;-70
2021/12/14 03:21:00;;;;;;;16.30;12.45;;;8.30;99.90;;;;;;5014002;28;20105;-69
2021/12/14 03:23:36;;;;;;;21.10;13.23;;;8.30;99.90;;;;;;5015523;28;20022;-69
2021/12/14 03:26:05;;;;;;;18.90;13.13;;;8.20;99.90;;;;;;5046212;22;20056;-69
2021/12/14 03:28:31;;;;;;;18.75;13.50;;;8.20;99.90;;;;;;5034673;28;20032;-69
2021/12/14 03:31:20;;;;;;;17.08;13.32;;;8.20;99.90;;;;;;5033908;28;20026;-69
2021/12/14 03:33:56;;;;;;;21.92;13.40;;;8.20;99.90;;;;;;5015315;28;20075;-68
2021/12/14 03:36:29;;;;;;;15.68;13.18;;;8.20;99.90;;;;;;5032579;28;20035;-70
2021/12/14 03:39:10;;;;;;;21.92;12.32;;;8.20;99.90;;;;;;5035019;28;20031;-69
2021/12/14 03:41:42;;;;;;;17.05;13.15;;;8.20;99.90;;;;;;5016366;28;20029;-69
2021/12/14 03:44:17;;;;;;;16.92;12.60;;;8.20;99.90;;;;;;5017009;28;20084;-68
2021/12/14 03:47:04;;;;;;;23.02;13.15;;;8.10;99.90;;;;;;5020377;28;20029;-69
2021/12/14 03:49:39;;;;;;;21.52;12.80;;;8.10;99.90;;;;;;5049380;28;20398;-69
2021/12/14 03:52:11;;;;;;;16.92;12.18;;;8.20;99.90;;;;;;5045696;28;20086;-70
2021/12/14 03:54:38;;;;;;;24.58;13.93;;;8.10;99.90;;;;;;5017644;28;20112;-69
2021/12/14 03:57:04;;;;;;;21.38;13.20;;;8.10;99.90;;;;;;5045411;28;20482;-69
2021/12/14 03:59:30;;;;;;;21.48;12.15;;;8.10;99.90;;;;;;5034552;28;20045;-69
2021/12/14 04:01:59;;;;;;;18.73;13.30;;;8.00;99.90;;;;;;5042411;28;20100;-69
2021/12/14 04:05:01;;;;;;;17.92;11.73;;;8.00;99.90;;;;;;5053491;28;20025;-70
2021/12/14 04:07:26;;;;;;;18.10;12.23;;;8.10;99.90;;;;;;5047041;28;20029;-69
2021/12/14 04:09:52;;;;;;;24.42;13.10;;;8.10;99.90;;;;;;5054368;28;20028;-69
2021/12/14 04:12:19;;;;;;;17.35;11.88;;;8.10;99.90;;;;;;5052304;28;20021;-69
2021/12/14 04:14:52;;;;;;;20.58;13.00;;;8.00;99.90;;;;;;5052656;28;20052;-68
2021/12/14 04:17:20;;;;;;;22.80;13.93;;;8.00;99.90;;;;;;5034222;28;20033;-70
2021/12/14 04:19:46;;;;;;;21.40;13.63;;;8.10;99.90;;;;;;5054143;28;20070;-70
2021/12/14 04:22:23;;;;;;;21.73;13.27;;;8.00;99.90;;;;;;5053061;28;20382;-70
2021/12/14 04:24:57;;;;;;;19.17;12.93;;;8.00;99.90;;;;;;5034047;28;20464;-70
2021/12/14 04:27:27;;;;;;;22.08;13.32;;;8.00;99.90;;;;;;5044939;28;20116;-71
2021/12/14 04:29:54;;;;;;;21.52;13.07;;;8.00;99.90;;;;;;5046793;28;20036;-69
2021/12/14 04:32:21;;;;;;;30.45;13.90;;;7.90;99.90;;;;;;5017603;28;20075;-70
2021/12/14 04:34:49;;;;;;;15.90;12.82;;;8.00;99.90;;;;;;5053177;28;20101;-70
2021/12/14 04:37:16;;;;;;;19.08;14.15;;;7.90;99.90;;;;;;5034835;28;20029;-70
2021/12/14 04:39:47;;;;;;;19.65;12.68;;;7.90;99.90;;;;;;5033854;28;20544;-70
2021/12/14 04:53:39;;;;;;;22.88;13.82;;;8.00;99.90;;;;;;5052317;28;20401;-69
2021/12/14 04:56:10;;;;;;;26.92;15.02;;;8.00;99.90;;;;;;5044307;28;20041;-69
2021/12/14 04:58:42;;;;;;;30.52;15.10;;;8.00;99.90;;;;;;5045389;28;20033;-69
2021/12/14 05:01:09;;;;;;;25.23;14.23;;;8.00;99.90;;;;;;5052465;28;20029;-69
2021/12/14 05:04:00;;;;;;;21.80;13.00;;;7.90;99.90;;;;;;5038416;28;20020;-69
2021/12/14 05:06:43;;;;;;;29.40;14.68;;;7.90;99.90;;;;;;5040859;28;20048;-68
2021/12/14 05:09:22;;;;;;;22.98;14.07;;;7.90;99.90;;;;;;5052637;28;20028;-69
2021/12/14 05:11:54;;;;;;;24.58;13.95;;;7.90;99.90;;;;;;5052354;28;20086;-69
2021/12/14 05:14:20;;;;;;;24.80;13.25;;;7.90;99.90;;;;;;5051386;28;20032;-69
2021/12/14 05:16:47;;;;;;;26.08;14.65;;;7.90;99.90;;;;;;5046577;28;20044;-69
2021/12/14 05:19:13;;;;;;;24.35;13.82;;;7.80;99.90;;;;;;5050854;28;20040;-71
2021/12/14 05:21:45;;;;;;;31.80;14.98;;;7.80;99.90;;;;;;5051034;28;20036;-71
2021/12/14 05:24:14;;;;;;;23.55;13.48;;;7.80;99.90;;;;;;5015258;28;20033;-71
2021/12/14 05:26:40;;;;;;;23.88;12.57;;;7.80;99.90;;;;;;5032654;28;20410;-71
2021/12/14 05:29:09;;;;;;;19.92;12.85;;;7.90;99.90;;;;;;5033624;28;20021;-72
2021/12/14 05:31:42;;;;;;;14.93;12.02;;;7.90;99.90;;;;;;5032069;28;20565;-71
2021/12/14 05:34:08;;;;;;;24.60;13.52;;;7.90;99.90;;;;;;5046739;28;20025;-70
2021/12/14 05:36:34;;;;;;;25.58;14.05;;;7.90;99.90;;;;;;5032138;28;20021;-71
2021/12/14 05:39:07;;;;;;;33.17;15.95;;;7.90;99.90;;;;;;5052494;28;20095;-71
2021/12/14 05:44:16;;;;;;;25.02;13.68;;;7.80;99.90;;;;;;5051487;28;20035;-69
2021/12/14 05:46:50;;;;;;;20.65;13.38;;;7.80;99.90;;;;;;5044618;28;20482;-68
2021/12/14 05:49:25;;;;;;;22.88;13.85;;;7.80;99.90;;;;;;5039730;28;20029;-71
2021/12/14 05:51:52;;;;;;;25.35;13.88;;;7.80;99.90;;;;;;5044589;28;20429;-71
2021/12/14 05:54:27;;;;;;;24.65;13.48;;;7.80;99.90;;;;;;5049772;28;20029;-71
2021/12/14 05:56:54;;;;;;;28.05;13.32;;;7.80;99.90;;;;;;5045983;28;20044;-71
2021/12/14 05:59:23;;;;;;;25.50;13.45;;;7.80;99.90;;;;;;5051010;28;20052;-71
2021/12/14 06:01:50;;;;;;;22.85;13.82;;;7.80;99.90;;;;;;5048944;28;20485;-70
2021/12/14 06:04:16;;;;;;;17.25;12.27;;;7.80;99.90;;;;;;5042930;28;20029;-70
2021/12/14 06:06:52;;;;;;;22.13;11.98;;;7.90;99.90;;;;;;5043388;28;20041;-71
2021/12/14 06:09:29;;;;;;;23.27;13.05;;;7.90;99.90;;;;;;5041356;28;20033;-71
2021/12/14 06:12:05;;;;;;;20.83;13.07;;;7.90;99.90;;;;;;5031508;28;20034;-71
2021/12/14 06:14:31;;;;;;;20.90;13.27;;;7.90;99.90;;;;;;5054284;28;20032;-71
2021/12/14 06:17:05;;;;;;;17.63;12.43;;;7.90;99.90;;;;;;5055613;28;20090;-69
2021/12/14 06:19:33;;;;;;;22.85;12.68;;;7.90;99.90;;;;;;5033928;28;20083;-69
2021/12/14 06:22:08;;;;;;;20.98;13.85;;;7.90;99.90;;;;;;5050527;28;20099;-68
2021/12/14 06:24:36;;;;;;;20.08;13.23;;;7.90;99.90;;;;;;5051353;28;20079;-69
2021/12/14 06:27:06;;;;;;;17.33;12.43;;;7.80;99.90;;;;;;5037920;28;20080;-70
2021/12/14 06:29:39;;;;;;;24.83;11.98;;;7.80;99.90;;;;;;5039924;28;20017;-67
2021/12/14 06:32:11;;;;;;;24.50;12.65;;;7.90;99.90;;;;;;5050901;28;20021;-70
2021/12/14 06:34:42;;;;;;;32.28;12.82;;;7.90;99.90;;;;;;5050528;28;20516;-67
2021/12/14 06:40:12;;;;;;;17.13;12.07;;;7.80;99.90;;;;;;5046075;28;20030;-67
2021/12/14 06:42:41;;;;;;;29.63;13.32;;;7.80;99.90;;;;;;5030725;28;20055;-70
2021/12/14 06:45:19;;;;;;;18.08;11.65;;;7.80;99.90;;;;;;5033691;28;20409;-68
2021/12/14 06:47:46;;;;;;;21.92;13.20;;;7.80;99.90;;;;;;5032562;28;20033;-67
2021/12/14 06:50:16;;;;;;;21.15;12.20;;;7.70;99.90;;;;;;5031923;28;20442;-69
2021/12/14 06:52:42;;;;;;;26.33;12.82;;;7.70;99.90;;;;;;4351979;28;10000700;-70
2021/12/14 06:55:20;;;;;;;18.52;12.30;;;7.70;99.90;;;;;;5046477;28;20489;-71
2021/12/14 06:57:46;;;;;;;23.70;12.93;;;7.70;99.90;;;;;;5033830;28;20029;-71
2021/12/14 07:00:12;;;;;;;21.05;11.80;;;7.70;99.90;;;;;;5047579;28;20505;-70
2021/12/14 07:02:50;;;;;;;19.67;11.30;;;7.70;99.90;;;;;;5031259;28;20127;-71
2021/12/14 07:05:27;;;;;;;24.73;11.90;;;7.70;99.90;;;;;;5031061;28;20051;-71
2021/12/14 07:07:52;;;;;;;22.13;13.63;;;7.70;99.90;;;;;;5027693;28;20390;-70
2021/12/14 07:10:18;;;;;;;21.52;12.30;;;7.70;99.90;;;;;;5028188;28;20025;-71
2021/12/14 07:12:45;;;;;;;18.13;12.13;;;7.80;99.90;;;;;;5028118;28;20040;-70
2021/12/14 07:15:16;;;;;;;24.88;13.50;;;7.80;99.90;;;;;;5028679;28;20380;-70
2021/12/14 07:17:53;;;;;;;20.05;12.02;;;7.80;99.90;;;;;;5027399;28;20207;-70
2021/12/14 07:20:32;;;;;;;25.88;12.88;;;7.70;99.90;;;;;;5043903;28;20022;-69
2021/12/14 07:23:15;;;;;;;20.70;11.85;;;7.70;99.90;;;;;;5027418;28;20037;-71
2021/12/14 07:25:41;;;;;;;18.17;11.90;;;7.70;99.90;;;;;;5032494;28;20040;-72
2021/12/14 07:28:15;;;;;;;16.80;11.52;;;7.70;99.90;;;;;;5027416;28;20091;-70
2021/12/14 07:30:53;;;;;;;18.98;12.02;;;7.70;99.90;;;;;;5027132;28;20026;-72
2021/12/14 07:33:28;;;;;;;21.38;12.65;;;8.90;99.90;;;;;;5027616;28;20125;-68
2021/12/14 07:36:20;;;;;;;18.08;12.48;;;7.70;99.90;;;;;;5030025;28;20059;-69
2021/12/14 07:38:48;;;;;;;20.05;11.65;;;7.50;99.90;;;;;;5047305;28;20486;-71
2021/12/14 07:41:30;;;;;;;18.00;11.85;;;7.70;99.90;;;;;;5045399;28;20021;-70
2021/12/14 07:44:04;;;;;;;22.52;12.68;;;7.80;99.90;;;;;;5026404;28;20032;-72
2021/12/14 07:46:38;;;;;;;30.67;14.30;;;7.70;99.90;;;;;;4688504;28;10000604;-72
2021/12/14 07:49:07;;;;;;;;;;;7.70;99.90;;;;;;5032710;28;20025;-71
2021/12/14 07:51:36;;;;;;;24.23;12.52;;;7.80;99.90;;;;;;5023326;28;19914;-68
2021/12/14 07:54:13;;;;;;;20.88;11.80;;;7.70;99.90;;;;;;5039105;28;20029;-71
2021/12/14 07:56:41;;;;;;;20.25;11.30;;;7.50;99.90;;;;;;5038222;28;20040;-70
2021/12/14 07:59:32;;;;;;;15.15;11.45;;;8.50;99.90;;;;;;5041542;28;20476;-68
2021/12/14 08:02:18;;;;;;;24.60;13.40;;;7.80;99.90;;;;;;5036667;28;20151;-68
2021/12/14 08:05:15;;;;;;;17.25;12.07;;;7.80;99.90;;;;;;5049112;28;20029;-68
2021/12/14 08:08:20;;;;;;;16.98;12.40;;;7.80;99.90;;;;;;5045192;28;20033;-68
2021/12/14 08:11:08;;;;;;;16.73;11.98;;;7.80;99.90;;;;;;5031011;28;20103;-69
2021/12/14 08:13:41;;;;;;;18.25;12.52;;;7.80;99.90;;;;;;5042095;28;20029;-68
2021/12/14 08:16:07;;;;;;;26.70;13.55;;;7.90;99.90;;;;;;5044659;28;20383;-68
2021/12/14 08:18:35;;;;;;;20.55;12.55;;;7.90;99.90;;;;;;5040175;28;20029;-69
2021/12/14 08:21:12;;;;;;;15.13;11.60;;;7.90;99.90;;;;;;5028652;28;20585;-68
2021/12/14 08:24:02;;;;;;;17.83;12.38;;;8.00;99.90;;;;;;5039343;28;20036;-68
2021/12/14 08:26:42;;;;;;;14.77;10.65;;;8.00;99.90;;;;;;5040584;28;20447;-67
2021/12/14 08:29:22;;;;;;;21.13;11.30;;;8.00;99.90;;;;;;5047517;28;20529;-69
2021/12/14 08:31:53;;;;;;;20.08;12.95;;;8.10;99.90;;;;;;5044550;28;20474;-66
2021/12/14 08:34:25;;;;;;;17.13;11.63;;;8.10;99.90;;;;;;5043028;28;20096;-66
2021/12/14 08:36:59;;;;;;;22.30;11.75;;;8.10;99.90;;;;;;5044718;28;20493;-66
2021/12/14 08:39:28;;;;;;;18.00;11.95;;;8.10;99.90;;;;;;5048063;28;20525;-66
2021/12/14 08:42:11;;;;;;;17.52;13.45;;;8.10;99.90;;;;;;5048032;28;20036;-66
2021/12/14 08:44:40;;;;;;;23.10;12.57;;;8.00;99.90;;;;;;5030227;28;20614;-66
2021/12/14 08:47:12;;;;;;;23.75;13.05;;;8.10;99.90;;;;;;5030380;28;20033;-66
2021/12/14 08:49:40;;;;;;;23.23;13.10;;;8.10;99.90;;;;;;5028870;28;20029;-67
2021/12/14 08:52:06;;;;;;;22.88;12.57;;;8.10;99.90;;;;;;5037988;28;20031;-67
2021/12/14 08:54:34;;;;;;;15.52;12.38;;;8.20;99.90;;;;;;5033332;28;20049;-67
2021/12/14 08:57:16;;;;;;;16.15;11.63;;;6.00;99.90;;;;;;5044142;28;20109;-67
2021/12/14 08:59:45;;;;;;;21.63;12.57;;;8.10;99.90;;;;;;5045474;28;20052;-66
2021/12/14 09:02:13;;;;;;;32.88;13.90;;;8.10;99.90;;;;;;5030893;28;20189;-67
2021/12/14 09:04:49;;;;;;;14.70;12.13;;;8.20;99.90;;;;;;5047830;28;20037;-68
2021/12/14 09:07:20;;;;;;;15.50;11.15;;;8.20;99.90;;;;;;5025135;28;20021;-68
2021/12/14 09:09:47;;;;;;;14.80;11.52;;;7.90;99.90;;;;;;5032204;28;20118;-68
2021/12/14 09:12:24;;;;;;;14.23;11.57;;;8.30;99.90;;;;;;5052513;28;20052;-67
2021/12/14 09:14:52;;;;;;;15.05;11.23;;;8.20;99.90;;;;;;5046856;28;20387;-69
2021/12/14 09:17:22;;;;;;;19.85;11.73;;;8.30;99.90;;;;;;5035008;28;20056;-67
2021/12/14 09:19:58;;;;;;;18.48;11.50;;;8.30;99.90;;;;;;5028937;28;20113;-66
2021/12/14 09:22:31;;;;;;;17.33;11.43;;;8.20;99.90;;;;;;5039054;28;20021;-67
2021/12/14 09:24:57;;;;;;;19.27;11.20;;;8.20;99.90;;;;;;5044042;28;20395;-69
2021/12/14 09:27:27;;;;;;;18.83;12.38;;;8.30;99.90;;;;;;5044362;28;20033;-72
2021/12/14 09:29:54;;;;;;;18.15;11.85;;;8.20;99.90;;;;;;5036625;28;20101;-69
2021/12/14 09:32:26;;;;;;;22.00;12.73;;;8.40;99.90;;;;;;5047316;28;20504;-70
2021/12/14 09:34:52;;;;;;;16.38;12.25;;;8.30;99.90;;;;;;5044120;28;20024;-72
2021/12/14 09:37:20;;;;;;;15.75;12.55;;;8.30;99.90;;;;;;5047031;28;20044;-70
2021/12/14 09:39:53;;;;;;;21.27;11.15;;;8.30;99.90;;;;;;5046223;28;20059;-70
2021/12/14 09:42:24;;;;;;;15.60;12.07;;;8.40;99.90;;;;;;5053387;28;20033;-67
2021/12/14 09:44:52;;;;;;;20.90;12.60;;;8.30;99.90;;;;;;5047373;28;20048;-69
2021/12/14 09:47:26;;;;;;;21.13;12.43;;;8.40;99.90;;;;;;5043874;28;20089;-71
2021/12/14 09:49:53;;;;;;;16.52;11.70;;;8.40;99.90;;;;;;5044379;28;20040;-69
2021/12/14 09:52:33;;;;;;;14.73;11.15;;;8.40;99.90;;;;;;5010733;28;20033;-70
2021/12/14 09:55:00;;;;;;;14.30;12.00;;;8.40;99.90;;;;;;5037329;28;20021;-69
2021/12/14 09:57:31;;;;;;;17.98;11.63;;;8.50;99.90;;;;;;5026898;28;20063;-74
2021/12/14 09:59:59;;;;;;;16.13;12.25;;;8.40;99.90;;;;;;5035046;28;20099;-70
2021/12/14 10:02:38;;;;;;;21.75;11.45;;;8.40;99.90;;;;;;5021361;28;20116;-69
2021/12/14 10:05:15;;;;;;;19.70;11.35;;;8.40;99.90;;;;;;5029897;28;20047;-69
2021/12/14 10:07:41;;;;;;;17.58;11.80;;;8.40;99.90;;;;;;5040021;28;20029;-69
2021/12/14 10:10:11;;;;;;;24.48;11.65;;;8.30;99.90;;;;;;5042242;28;20025;-70
2021/12/14 10:12:49;;;;;;;16.15;11.98;;;8.30;99.90;;;;;;5022245;28;20033;-73
2021/12/14 10:15:27;;;;;;;20.08;12.13;;;8.40;99.90;;;;;;5041092;28;20014;-70
2021/12/14 10:17:55;;;;;;;17.85;11.70;;;8.40;99.90;;;;;;5040588;28;20021;-74
2021/12/14 10:20:27;;;;;;;16.63;11.10;;;8.30;99.90;;;;;;5037628;28;20034;-71
2021/12/14 10:22:54;;;;;;;17.08;10.80;;;8.30;99.90;;;;;;5031504;28;20311;-68
2021/12/14 10:25:22;;;;;;;12.40;11.27;;;8.30;99.90;;;;;;5039959;28;20063;-71
2021/12/14 10:27:49;;;;;;;15.45;11.52;;;8.40;99.90;;;;;;5031558;28;20112;-73
2021/12/14 10:30:56;;;;;;;14.13;11.43;;;8.40;99.90;;;;;;5019816;28;20085;-70
2021/12/14 10:33:23;;;;;;;22.20;11.77;;;8.40;99.90;;;;;;4996917;28;20537;-69
2021/12/14 10:35:55;;;;;;;13.45;9.90;;;8.50;99.90;;;;;;5037294;28;20057;-70
2021/12/14 10:38:31;;;;;;;14.07;11.43;;;8.50;99.90;;;;;;5041589;28;20375;-71
2021/12/14 10:43:48;;;;;;;18.45;12.15;;;8.60;99.90;;;;;;5040224;28;20032;-70
2021/12/14 10:46:23;;;;;;;14.30;10.90;;;8.70;99.90;;;;;;5044215;28;20124;-73
2021/12/14 10:48:50;;;;;;;;;;;8.70;99.90;;;;;;5024362;28;20057;-73
2021/12/14 10:51:22;;;;;;;14.15;11.10;;;8.80;99.90;;;;;;5040698;28;19904;-72
2021/12/14 10:53:49;;;;;;;17.00;12.07;;;8.70;99.90;;;;;;5011119;28;20009;-70
2021/12/14 10:56:19;;;;;;;14.40;11.18;;;8.70;99.90;;;;;;5040497;28;20040;-71
2021/12/14 10:58:48;;;;;;;15.20;10.88;;;9.90;99.90;;;;;;5041543;28;20041;-73
2021/12/14 11:01:19;;;;;;;13.10;11.00;;;8.90;99.90;;;;;;5040529;28;20415;-69
2021/12/14 11:03:49;;;;;;;11.10;10.07;;;8.90;99.90;;;;;;5036662;28;20458;-68
2021/12/14 11:06:22;;;;;;;15.13;11.85;;;9.00;99.90;;;;;;5033972;28;20069;-72
2021/12/14 11:09:38;;;;;;;14.90;11.65;;;8.90;99.90;;;;;;5037846;28;20021;-71
2021/12/14 11:11:49;;;;;;;18.60;12.32;;;9.00;99.90;;;;;;5031130;28;20556;-70
2021/12/14 11:14:27;;;;;;;18.13;11.23;;;9.00;99.90;;;;;;5034272;28;20025;-70
2021/12/14 11:19:57;;;;;;;14.05;11.00;;;9.00;99.90;;;;;;5028959;28;20043;-70
2021/12/14 11:22:29;;;;;;;16.77;11.38;;;9.10;99.90;;;;;;5035769;28;20028;-70
2021/12/14 11:24:59;;;;;;;16.83;11.40;;;9.20;99.90;;;;;;5041084;28;20390;-71
2021/12/14 11:27:31;;;;;;;15.45;12.57;;;9.90;99.90;;;;;;5037478;28;20491;-68
2021/12/14 11:30:18;;;;;;;11.73;10.18;;;9.10;99.90;;;;;;5038143;28;20387;-69
2021/12/14 11:33:00;;;;;;;14.05;10.20;;;9.10;99.90;;;;;;5041412;28;20390;-70
2021/12/14 11:35:28;;;;;;;17.42;12.13;;;9.10;99.90;;;;;;5040900;28;20474;-68
2021/12/14 11:37:56;;;;;;;16.58;9.52;;;9.00;99.90;;;;;;5046724;28;20401;-73
2021/12/14 11:40:23;;;;;;;13.07;9.48;;;9.00;99.90;;;;;;5049522;28;20079;-71
2021/12/14 11:42:51;;;;;;;12.55;10.52;;;9.10;99.90;;;;;;5043877;28;20166;-72
2021/12/14 11:45:23;;;;;;;10.73;9.73;;;9.30;99.90;;;;;;5037288;28;20033;-73
2021/12/14 11:47:54;;;;;;;14.05;10.43;;;9.40;99.90;;;;;;5037542;28;20218;-70
2021/12/14 11:50:47;;;;;;;13.57;10.23;;;9.50;99.90;;;;;;5044441;28;20047;-70
2021/12/14 11:53:18;;;;;;;10.82;9.73;;;9.50;99.90;;;;;;5035200;28;20103;-67
2021/12/14 11:55:55;;;;;;;17.95;10.55;;;9.70;99.90;;;;;;5034248;28;20108;-72
2021/12/14 11:58:43;;;;;;;34.92;11.18;;;9.80;99.90;;;;;;5044223;28;20127;-75
2021/12/14 12:01:17;;;;;;;16.05;9.85;;;9.80;99.90;;;;;;5041667;28;20074;-69
2021/12/14 12:03:53;;;;;;;10.52;9.52;;;10.50;99.90;;;;;;5034420;28;20143;-71
2021/12/14 12:09:33;;;;;;;;;;;9.90;99.90;;;;;;5041120;28;20035;-71
2021/12/14 12:12:04;;;;;;;13.50;10.15;;;9.80;99.90;;;;;;5031090;28;19909;-71
2021/12/14 12:14:35;;;;;;;11.23;9.15;;;9.80;99.90;;;;;;5036054;28;20025;-73
2021/12/14 12:17:28;;;;;;;9.77;8.88;;;9.80;99.90;;;;;;5043842;28;20024;-70
2021/12/14 12:20:31;;;;;;;14.43;9.45;;;10.00;99.90;;;;;;5043620;28;20028;-72
2021/12/14 12:23:09;;;;;;;14.48;9.48;;;9.90;99.90;;;;;;5034022;28;20031;-75
2021/12/14 12:25:43;;;;;;;13.20;9.48;;;9.90;99.90;;;;;;5037876;28;20529;-72
2021/12/14 12:28:25;;;;;;;12.93;10.32;;;9.80;99.90;;;;;;5044159;28;20029;-72
2021/12/14 12:31:06;;;;;;;10.48;9.00;;;10.00;99.90;;;;;;5041327;28;20128;-73
2021/12/14 12:33:37;;;;;;;12.77;9.32;;;9.90;99.90;;;;;;5040459;28;20033;-72
2021/12/14 12:36:16;;;;;;;14.93;9.07;;;9.90;99.90;;;;;;5043362;28;20855;-73
2021/12/14 12:39:00;;;;;;;11.48;10.07;;;9.80;99.90;;;;;;5038528;28;20025;-73
2021/12/14 12:41:29;;;;;;;10.45;9.55;;;9.80;99.90;;;;;;5046433;28;20025;-70
2021/12/14 12:44:12;;;;;;;15.63;8.85;;;9.80;99.90;;;;;;5041446;28;20025;-73
2021/12/14 12:46:56;;;;;;;10.25;9.10;;;9.80;99.90;;;;;;5042654;28;20389;-72
2021/12/14 12:49:35;;;;;;;11.07;9.98;;;9.70;99.90;;;;;;5025831;28;20021;-67
2021/12/14 12:52:17;;;;;;;9.98;8.90;;;9.50;99.90;;;;;;5041469;28;20110;-69
2021/12/14 12:54:44;;;;;;;13.30;9.77;;;9.40;99.90;;;;;;5040932;28;20254;-71
2021/12/14 12:57:35;;;;;;;13.43;9.43;;;9.40;99.90;;;;;;5042865;28;20017;-73
2021/12/14 13:00:17;;;;;;;11.77;9.60;;;10.30;99.90;;;;;;5025344;28;20039;-73
2021/12/14 13:02:45;;;;;;;13.75;10.23;;;9.50;99.90;;;;;;5042225;28;20446;-71
2021/12/14 13:05:25;;;;;;;18.58;9.13;;;9.50;99.90;;;;;;5024694;28;20380;-70
2021/12/14 13:08:09;;;;;;;10.32;9.35;;;9.40;99.90;;;;;;5046296;28;20094;-71
2021/12/14 13:10:49;;;;;;;15.90;10.38;;;9.40;99.90;;;;;;5046033;28;20116;-70
2021/12/14 13:13:23;;;;;;;14.85;10.15;;;8.70;99.90;;;;;;5045766;28;20490;-71
2021/12/14 13:15:56;;;;;;;11.38;10.07;;;9.50;99.90;;;;;;5047443;28;20052;-71
2021/12/14 13:18:38;;;;;;;10.43;9.18;;;9.40;99.90;;;;;;5047491;28;20024;-71
2021/12/14 13:21:17;;;;;;;10.48;9.57;;;9.30;99.90;;;;;;5029400;28;20402;-71
2021/12/14 13:24:04;;;;;;;17.73;10.07;;;9.30;99.90;;;;;;5046592;28;20056;-71
2021/12/14 13:26:57;;;;;;;11.55;10.07;;;9.20;99.90;;;;;;5047863;28;20060;-71
2021/12/14 13:29:45;;;;;;;14.77;10.55;;;9.30;99.90;;;;;;5047034;28;20048;-73
2021/12/14 13:32:33;;;;;;;11.50;10.10;;;9.30;99.90;;;;;;5046180;28;20131;-73
2021/12/14 13:35:13;;;;;;;10.30;9.23;;;9.30;99.90;;;;;;5047949;28;20102;-73
2021/12/14 13:37:48;;;;;;;13.90;11.75;;;9.30;99.90;;;;;;5015072;28;20483;-72
2021/12/14 13:40:44;;;;;;;15.10;12.10;;;9.20;99.90;;;;;;5034754;28;20025;-71
2021/12/14 13:43:21;;;;;;;12.63;10.50;;;9.00;99.90;;;;;;5026869;28;20041;-69
2021/12/14 13:45:52;;;;;;;19.58;12.50;;;8.90;99.90;;;;;;5046616;28;20044;-71